Time;durP1;ratioP1;P1;durP2;ratioP2;P2;SDS_P1;SDS_P2;PMS_P1;PMS_P2;Temp;Humidity;BMP_temperature;BMP_pressure;BME280_temperature;BME280_humidity;BME280_pressure;Samples;Min_cycle;Max_cycle;Signal;HPM_P1;HPM_P2
2023/04/29 00:01:04;;;;;;;9.68;2.15;;;;;;;7.37;100.00;101269.06;5132177;27;20059;-84
2023/04/29 00:03:31;;;;;;;8.93;2.80;;;;;;;7.14;100.00;101199.09;5132815;27;20054;-84
2023/04/29 00:05:59;;;;;;;10.48;2.45;;;;;;;7.23;100.00;101217.19;5119547;27;20097;-84
2023/04/29 00:08:27;;;;;;;11.13;2.25;;;;;;;7.35;100.00;101249.16;5121556;27;20051;-84
2023/04/29 00:10:54;;;;;;;12.75;2.40;;;;;;;7.23;100.00;101252.78;5129688;27;20096;-83
2023/04/29 00:13:21;;;;;;;10.48;2.20;;;;;;;6.93;100.00;101210.72;5133009;27;20043;-85
2023/04/29 00:15:48;;;;;;;10.30;3.15;;;;;;;7.03;100.00;101212.28;5132462;27;20382;-84
2023/04/29 00:18:14;;;;;;;12.38;3.42;;;;;;;7.31;100.00;101237.03;5134323;27;20130;-84
2023/04/29 00:20:42;;;;;;;8.50;1.92;;;;;;;7.28;100.00;101243.16;5132803;27;20069;-85
2023/04/29 00:23:10;;;;;;;9.05;2.45;;;;;;;7.23;100.00;101238.03;5132612;27;20055;-84
2023/04/29 00:25:37;;;;;;;10.95;2.40;;;;;;;7.20;100.00;101238.06;5134037;27;20051;-85
2023/04/29 00:28:07;;;;;;;8.20;2.30;;;;;;;7.52;100.00;101274.91;5133695;27;20050;-86
2023/04/29 00:30:34;;;;;;;8.05;2.38;;;;;;;7.37;100.00;101250.84;5132442;27;20047;-84
2023/04/29 00:33:01;;;;;;;10.00;2.17;;;;;;;7.52;100.00;101254.91;5130648;27;20054;-85
2023/04/29 00:35:28;;;;;;;16.10;2.58;;;;;;;7.14;100.00;101238.16;5122621;27;20420;-84
2023/04/29 00:37:54;;;;;;;13.85;2.30;;;;;;;7.30;100.00;101259.63;5128153;27;20039;-85
2023/04/29 00:40:21;;;;;;;13.45;2.83;;;;;;;7.07;100.00;101217.47;5132405;27;20055;-86
2023/04/29 00:42:48;;;;;;;11.93;2.63;;;;;;;7.24;100.00;101233.66;5130853;28;20457;-86
2023/04/29 00:45:15;;;;;;;11.15;2.13;;;;;;;7.16;100.00;101254.63;5128301;28;20047;-86
2023/04/29 00:47:42;;;;;;;14.75;2.47;;;;;;;7.16;100.00;101231.19;5133323;27;20055;-86
2023/04/29 00:50:09;;;;;;;7.85;2.28;;;;;;;6.99;100.00;101226.25;5132799;27;20047;-84
2023/04/29 00:52:37;;;;;;;9.95;1.98;;;;;;;7.15;100.00;101258.13;5131931;27;20485;-85
2023/04/29 00:55:08;;;;;;;9.55;2.03;;;;;;;7.28;100.00;101279.63;5128905;28;20069;-84
2023/04/29 00:57:34;;;;;;;10.52;2.95;;;;;;;7.04;100.00;101278.25;5121553;28;20042;-84
2023/04/29 01:00:02;;;;;;;11.60;2.38;;;;;;;7.06;100.00;101278.22;5117586;28;20043;-85
2023/04/29 01:02:29;;;;;;;16.33;3.20;;;;;;;7.00;100.00;101246.19;5131227;28;20395;-84
2023/04/29 01:04:56;;;;;;;7.25;1.73;;;;;;;7.13;100.00;101272.88;5122156;28;20061;-85
2023/04/29 01:07:33;;;;;;;11.05;2.38;;;;;;;7.34;100.00;101315.16;5133034;27;20122;-84
2023/04/29 01:10:13;;;;;;;15.30;2.67;;;;;;;7.30;100.00;101316.09;5132016;28;20051;-84
2023/04/29 01:13:01;;;;;;;11.75;2.53;;;;;;;7.20;100.00;101316.19;5132270;27;20400;-84
2023/04/29 01:15:31;;;;;;;13.80;3.13;;;;;;;7.08;100.00;101318.97;5131212;28;20051;-84
2023/04/29 01:18:33;;;;;;;11.85;2.78;;;;;;;6.98;100.00;101322.59;5118787;27;20693;-84
2023/04/29 01:21:00;;;;;;;11.57;2.75;;;;;;;6.74;100.00;101295.13;5018908;28;20507;-84
2023/04/29 01:23:28;;;;;;;9.35;2.08;;;;;;;6.83;100.00;101279.41;5110646;28;20046;-84
2023/04/29 01:25:56;;;;;;;9.80;2.63;;;;;;;6.83;100.00;101295.91;5118239;27;20051;-84
2023/04/29 01:28:52;;;;;;;12.15;2.35;;;;;;;6.96;100.00;101325.22;5131591;28;20089;-84
2023/04/29 01:31:22;;;;;;;12.40;2.45;;;;;;;6.93;100.00;101306.19;5128678;28;20795;-85
2023/04/29 01:34:10;;;;;;;15.98;2.58;;;;;;;7.08;100.00;101328.53;5129945;28;20045;-84
2023/04/29 01:36:43;;;;;;;14.40;3.38;;;;;;;7.01;100.00;101338.16;5130365;28;20047;-84
2023/04/29 01:39:25;;;;;;;12.35;2.90;;;;;;;6.39;100.00;101247.88;5133069;27;20453;-84
2023/04/29 01:42:10;;;;;;;9.05;2.22;;;;;;;6.93;100.00;101332.22;5118606;27;20501;-85
2023/04/29 01:44:40;;;;;;;11.68;2.17;;;;;;;6.92;100.00;101343.50;5120771;27;20417;-85
2023/04/29 01:47:12;;;;;;;16.65;3.08;;;;;;;6.83;100.00;101358.38;5133640;27;20039;-86
2023/04/29 01:49:39;;;;;;;8.07;2.60;;;;;;;6.68;100.00;101301.28;5135318;27;20465;-85
2023/04/29 01:52:08;;;;;;;8.00;2.00;;;;;;;6.74;100.00;101293.38;5135741;27;20450;-84
2023/04/29 01:54:35;;;;;;;9.48;2.42;;;;;;;6.49;100.00;101277.22;5128691;27;20043;-85
2023/04/29 01:57:02;;;;;;;8.75;2.20;;;;;;;6.69;100.00;101304.75;5127413;27;20043;-85
2023/04/29 01:59:29;;;;;;;12.05;2.50;;;;;;;6.60;100.00;101292.69;5135948;27;20051;-85
2023/04/29 02:01:57;;;;;;;6.05;2.33;;;;;;;6.93;100.00;101340.88;5123747;27;20051;-85
2023/04/29 02:04:24;;;;;;;11.10;2.80;;;;;;;6.67;100.00;101315.16;5129266;27;20043;-85
2023/04/29 02:06:51;;;;;;;13.65;2.03;;;;;;;6.54;100.00;101308.41;5136091;27;20378;-85
2023/04/29 02:09:18;;;;;;;10.90;1.70;;;;;;;6.63;100.00;101331.69;5135068;27;20050;-85
2023/04/29 02:11:45;;;;;;;7.90;2.20;;;;;;;6.65;100.00;101311.72;5135243;27;20051;-85
2023/04/29 02:14:12;;;;;;;10.25;2.22;;;;;;;6.58;100.00;101284.91;5134492;27;20042;-85
2023/04/29 02:16:39;;;;;;;9.10;3.08;;;;;;;6.79;100.00;101321.97;5134989;27;20115;-86
2023/04/29 02:19:06;;;;;;;12.27;3.75;;;;;;;6.47;100.00;101310.22;5133280;27;20047;-85
2023/04/29 02:21:34;;;;;;;8.10;1.92;;;;;;;6.38;100.00;101287.75;5134222;27;20058;-85
2023/04/29 02:24:01;;;;;;;12.98;2.22;;;;;;;6.53;100.00;101304.06;5134803;27;20443;-85
2023/04/29 02:26:28;;;;;;;13.65;2.83;;;;;;;6.39;100.00;101286.91;5136437;27;20047;-85
2023/04/29 02:28:56;;;;;;;8.05;1.77;;;;;;;6.56;100.00;101333.50;5134651;27;20047;-85
2023/04/29 02:31:23;;;;;;;9.55;2.40;;;;;;;6.18;100.00;101281.91;5135597;27;20059;-86
2023/04/29 02:33:49;;;;;;;9.68;2.00;;;;;;;6.51;100.00;101317.09;5135303;27;20043;-86
2023/04/29 02:36:17;;;;;;;7.13;2.08;;;;;;;6.56;100.00;101327.44;5135326;27;20046;-86
2023/04/29 02:38:43;;;;;;;10.07;2.38;;;;;;;6.80;100.00;101379.22;5134890;27;20093;-86
2023/04/29 02:41:16;;;;;;;8.27;2.00;;;;;;;6.45;100.00;101338.84;5134207;27;20054;-85
2023/04/29 02:43:43;;;;;;;8.60;2.63;;;;;;;6.54;100.00;101335.28;5134938;27;20055;-86
2023/04/29 02:46:10;;;;;;;10.48;2.30;;;;;;;6.63;100.00;101342.97;5135373;27;20043;-85
2023/04/29 02:48:37;;;;;;;10.70;2.33;;;;;;;6.39;100.00;101325.03;5134791;27;20047;-85
2023/04/29 02:51:03;;;;;;;11.30;2.45;;;;;;;6.11;100.00;101303.66;5134919;27;20500;-85
2023/04/29 02:53:30;;;;;;;15.23;2.35;;;;;;;6.41;100.00;101359.69;5131674;27;20428;-85
2023/04/29 02:55:57;;;;;;;9.65;2.15;;;;;;;6.64;100.00;101362.06;5134007;27;20051;-85
2023/04/29 02:58:24;;;;;;;17.85;4.45;;;;;;;6.69;100.00;101385.41;5133429;27;20046;-85
2023/04/29 03:00:50;;;;;;;6.78;1.70;;;;;;;6.64;100.00;101373.31;5122700;27;20051;-85
2023/04/29 03:03:18;;;;;;;7.40;1.98;;;;;;;6.65;100.00;101353.34;5130300;27;20047;-85
2023/04/29 03:05:45;;;;;;;11.40;2.63;;;;;;;6.23;100.00;101319.13;5128978;27;20364;-85
2023/04/29 03:08:11;;;;;;;5.97;2.10;;;;;;;6.56;100.00;101348.28;5133341;27;20046;-84
2023/04/29 03:10:38;;;;;;;8.18;2.20;;;;;;;6.48;100.00;101358.78;5133309;27;20046;-85
2023/04/29 03:13:07;;;;;;;11.05;2.72;;;;;;;6.40;100.00;101363.19;5133483;27;20055;-85
2023/04/29 03:15:34;;;;;;;7.85;2.10;;;;;;;6.24;100.00;101339.06;5120059;27;20047;-84
2023/04/29 03:18:02;;;;;;;8.02;2.47;;;;;;;6.71;100.00;101394.94;5132546;27;20047;-85
2023/04/29 03:20:29;;;;;;;10.75;2.33;;;;;;;6.39;100.00;101332.81;5132829;27;20043;-85
2023/04/29 03:22:56;;;;;;;11.20;2.60;;;;;;;6.43;100.00;101343.19;5134021;27;20047;-84
2023/04/29 03:25:23;;;;;;;6.88;2.10;;;;;;;6.49;100.00;101367.44;5130156;27;20051;-85
2023/04/29 03:27:50;;;;;;;10.15;2.03;;;;;;;6.46;100.00;101358.78;5132727;27;20046;-84
2023/04/29 03:30:17;;;;;;;8.65;2.50;;;;;;;6.39;100.00;101346.72;5119483;27;20120;-85
2023/04/29 03:32:44;;;;;;;6.22;2.10;;;;;;;6.23;100.00;101327.81;5132430;27;20057;-84
2023/04/29 03:35:11;;;;;;;8.85;2.40;;;;;;;6.18;100.00;101323.50;5132791;27;20121;-82
2023/04/29 03:37:43;;;;;;;7.68;2.30;;;;;;;6.43;100.00;101370.97;5120427;27;20081;-82
2023/04/29 03:40:11;;;;;;;11.70;2.30;;;;;;;6.03;100.00;101301.97;5134282;27;20484;-82
2023/04/29 03:42:37;;;;;;;10.85;2.42;;;;;;;5.96;100.00;101328.06;5132617;27;20047;-82
2023/04/29 03:45:05;;;;;;;7.68;1.90;;;;;;;6.49;100.00;101402.09;5131587;27;20043;-82
2023/04/29 03:47:32;;;;;;;6.68;2.08;;;;;;;6.47;100.00;101388.25;5134326;27;20039;-84
2023/04/29 03:49:59;;;;;;;8.23;2.00;;;;;;;6.29;100.00;101383.25;5132644;27;20043;-85
2023/04/29 03:52:26;;;;;;;14.43;3.60;;;;;;;6.21;100.00;101373.75;5131196;27;20046;-85
2023/04/29 03:54:52;;;;;;;9.88;2.33;;;;;;;6.13;100.00;101374.72;5125586;27;20401;-85
2023/04/29 03:57:19;;;;;;;11.05;2.60;;;;;;;5.84;100.00;101339.38;5128495;27;20047;-82
2023/04/29 03:59:49;;;;;;;9.35;2.17;;;;;;;6.07;100.00;101383.41;5132329;27;20051;-83
2023/04/29 04:02:16;;;;;;;9.65;2.03;;;;;;;6.17;100.00;101405.88;5132219;27;20139;-83
2023/04/29 04:04:43;;;;;;;11.07;2.13;;;;;;;5.88;100.00;101364.50;5132605;27;20051;-83
2023/04/29 04:07:10;;;;;;;9.63;2.63;;;;;;;6.05;100.00;101401.63;5133166;27;20044;-82
2023/04/29 04:09:37;;;;;;;11.43;2.45;;;;;;;5.84;100.00;101418.22;5132603;27;20043;-85
2023/04/29 04:12:05;;;;;;;10.55;2.25;;;;;;;5.70;100.00;101400.13;5132823;27;20062;-84
2023/04/29 04:14:32;;;;;;;11.43;2.35;;;;;;;5.63;100.00;101408.84;5132206;27;20070;-84
2023/04/29 04:16:59;;;;;;;8.88;2.08;;;;;;;5.80;100.00;101406.13;5132202;27;20066;-84
2023/04/29 04:19:27;;;;;;;6.68;1.75;;;;;;;5.72;100.00;101394.94;5131458;27;20051;-84
2023/04/29 04:21:54;;;;;;;7.47;1.88;;;;;;;5.80;100.00;101377.53;5127839;27;20124;-84
2023/04/29 04:24:22;;;;;;;7.22;2.35;;;;;;;6.18;100.00;101431.00;5131838;27;20069;-84
2023/04/29 04:26:48;;;;;;;8.00;2.05;;;;;;;5.99;100.00;101380.03;5117941;27;20101;-84
2023/04/29 04:29:15;;;;;;;8.93;2.22;;;;;;;6.34;100.00;101438.66;5125203;27;20044;-85
2023/04/29 04:31:42;;;;;;;8.25;2.50;;;;;;;6.13;100.00;101424.13;5118719;27;20122;-84
2023/04/29 04:34:12;;;;;;;11.45;2.00;;;;;;;5.81;100.00;101379.25;5131736;27;20058;-84
2023/04/29 04:36:40;;;;;;;13.88;3.55;;;;;;;5.85;100.00;101360.16;5126871;27;20078;-85
2023/04/29 04:39:07;;;;;;;10.07;2.00;;;;;;;6.17;100.00;101421.47;5133451;27;20131;-85
2023/04/29 04:41:33;;;;;;;9.93;2.45;;;;;;;6.22;100.00;101430.09;5128789;27;20044;-84
2023/04/29 04:44:01;;;;;;;7.22;2.10;;;;;;;5.81;100.00;101365.41;5125916;28;20051;-85
2023/04/29 04:46:27;;;;;;;8.10;1.80;;;;;;;6.22;100.00;101419.69;5128775;28;20078;-85
2023/04/29 04:48:54;;;;;;;7.72;1.80;;;;;;;6.50;100.00;101423.75;5125503;28;20051;-86
2023/04/29 04:51:21;;;;;;;6.63;1.65;;;;;;;6.46;100.00;101408.22;5119439;28;20043;-85
2023/04/29 04:53:48;;;;;;;4.30;1.98;;;;;;;6.62;100.00;101442.75;5130939;28;20050;-83
2023/04/29 04:56:15;;;;;;;12.00;2.20;;;;;;;6.46;100.00;101392.59;5114961;27;20054;-85
2023/04/29 04:58:41;;;;;;;4.82;1.80;;;;;;;6.43;100.00;101403.03;5133325;27;20039;-83
2023/04/29 05:01:08;;;;;;;5.50;1.88;;;;;;;6.46;100.00;101402.13;5133305;27;20047;-83
2023/04/29 05:03:35;;;;;;;6.63;2.40;;;;;;;6.48;100.00;101421.22;5125442;27;20050;-84
2023/04/29 05:06:03;;;;;;;4.50;1.70;;;;;;;6.46;100.00;101426.41;5122975;28;20047;-83
2023/04/29 05:08:30;;;;;;;5.47;1.60;;;;;;;6.32;100.00;101430.00;5132930;27;20036;-84
2023/04/29 05:10:57;;;;;;;6.80;1.60;;;;;;;6.46;100.00;101439.44;5132237;28;20051;-84
2023/04/29 05:13:24;;;;;;;8.65;1.95;;;;;;;6.08;100.00;101403.34;5131055;28;20063;-84
2023/04/29 05:15:51;;;;;;;6.35;1.88;;;;;;;6.28;100.00;101431.78;5132047;27;20043;-84
2023/04/29 05:18:17;;;;;;;11.18;3.10;;;;;;;6.11;100.00;101424.13;5134387;27;20418;-84
2023/04/29 05:20:44;;;;;;;12.80;2.80;;;;;;;6.31;100.00;101475.13;5135576;27;20051;-84
2023/04/29 05:23:11;;;;;;;11.38;3.10;;;;;;;6.19;100.00;101470.88;5131779;27;20094;-84
2023/04/29 05:25:38;;;;;;;9.63;2.28;;;;;;;6.18;100.00;101461.31;5130315;27;20130;-85
2023/04/29 05:28:06;;;;;;;8.52;2.47;;;;;;;6.20;100.00;101476.06;5127893;27;20039;-85
2023/04/29 05:30:33;;;;;;;4.28;1.80;;;;;;;6.37;100.00;101480.25;5135787;27;20039;-85
2023/04/29 05:33:00;;;;;;;4.60;1.80;;;;;;;6.46;100.00;101483.66;5135044;27;20051;-84
2023/04/29 05:35:27;;;;;;;6.40;2.08;;;;;;;6.36;100.00;101458.59;5122371;27;20058;-85
2023/04/29 05:37:54;;;;;;;7.72;2.22;;;;;;;6.28;100.00;101478.59;5132074;27;20054;-85
2023/04/29 05:40:22;;;;;;;6.47;1.83;;;;;;;6.16;100.00;101460.47;5131347;27;20054;-83
2023/04/29 05:42:48;;;;;;;7.60;2.47;;;;;;;6.35;100.00;101466.41;5127927;27;20040;-85
2023/04/29 05:45:15;;;;;;;8.77;2.50;;;;;;;5.94;100.00;101429.41;5128015;27;20047;-84
2023/04/29 05:47:42;;;;;;;6.28;2.05;;;;;;;6.00;100.00;101445.00;5131130;27;20382;-83
2023/04/29 05:50:10;;;;;;;10.25;2.50;;;;;;;5.91;100.00;101426.81;5129934;27;20049;-84
2023/04/29 05:52:37;;;;;;;8.07;2.35;;;;;;;6.17;100.00;101460.47;5131288;27;20044;-83
2023/04/29 05:55:04;;;;;;;10.52;2.47;;;;;;;6.00;100.00;101458.00;5125736;27;20047;-84
2023/04/29 05:57:31;;;;;;;10.02;2.63;;;;;;;5.82;100.00;101461.53;5131017;27;20473;-83
2023/04/29 05:59:58;;;;;;;10.82;2.67;;;;;;;5.89;100.00;101480.56;5122232;27;20054;-84
2023/04/29 06:02:26;;;;;;;7.50;2.13;;;;;;;6.11;100.00;101490.84;5134579;27;20039;-84
2023/04/29 06:04:53;;;;;;;6.50;2.30;;;;;;;5.68;100.00;101430.47;5130187;27;20097;-83
2023/04/29 06:07:20;;;;;;;7.15;1.95;;;;;;;5.78;100.00;101448.59;5124768;27;20064;-85
2023/04/29 06:09:47;;;;;;;9.77;2.10;;;;;;;5.97;100.00;101465.81;5136108;27;20047;-84
2023/04/29 06:12:14;;;;;;;8.25;2.10;;;;;;;6.04;100.00;101477.06;5129766;27;20480;-84
2023/04/29 06:14:41;;;;;;;6.95;2.40;;;;;;;6.21;100.00;101482.09;5123367;27;20055;-85
2023/04/29 06:17:07;;;;;;;6.72;1.70;;;;;;;6.14;100.00;101475.22;5135407;27;20048;-84
2023/04/29 06:19:34;;;;;;;6.88;2.33;;;;;;;6.42;100.00;101525.31;5129177;27;20404;-84
2023/04/29 06:22:01;;;;;;;6.57;2.25;;;;;;;6.25;100.00;101491.59;5133562;27;20043;-84
2023/04/29 06:24:28;;;;;;;6.60;2.05;;;;;;;6.06;100.00;101451.91;5126059;27;20382;-85
2023/04/29 06:26:55;;;;;;;6.85;1.83;;;;;;;6.33;100.00;101486.38;5128666;27;20049;-85
2023/04/29 06:29:22;;;;;;;6.55;2.30;;;;;;;6.62;100.00;101528.63;5110175;28;20040;-85
2023/04/29 06:31:49;;;;;;;7.35;1.75;;;;;;;6.33;100.00;101489.81;5110413;28;20101;-85
2023/04/29 06:34:16;;;;;;;7.85;1.90;;;;;;;6.39;100.00;101496.69;5106123;28;20102;-85
2023/04/29 06:36:43;;;;;;;7.78;2.30;;;;;;;6.36;100.00;101466.38;5106431;28;20051;-85
2023/04/29 06:39:10;;;;;;;6.43;2.10;;;;;;;6.68;100.00;101522.50;5109494;28;20113;-85
2023/04/29 06:41:37;;;;;;;6.47;2.35;;;;;;;6.89;100.00;101536.16;5112955;28;20044;-84
2023/04/29 06:44:04;;;;;;;10.02;2.38;;;;;;;6.54;100.00;101495.72;5108179;28;20112;-84
2023/04/29 06:46:30;;;;;;;9.48;2.00;;;;;;;6.59;100.00;101505.22;5113400;28;20050;-82
2023/04/29 06:48:57;;;;;;;8.07;1.88;;;;;;;6.60;100.00;101511.28;5109219;28;20114;-83
2023/04/29 06:51:24;;;;;;;7.10;2.10;;;;;;;6.50;100.00;101491.41;5111804;28;20417;-83
2023/04/29 06:53:51;;;;;;;8.13;1.80;;;;;;;6.99;100.00;101548.22;5108140;28;20105;-85
2023/04/29 06:56:21;;;;;;;6.43;2.10;;;;;;;7.07;100.00;101540.34;5112576;28;20055;-83
2023/04/29 06:58:48;;;;;;;6.57;1.95;;;;;;;6.70;100.00;101491.25;5113582;28;20103;-84
2023/04/29 07:01:15;;;;;;;11.93;2.35;;;;;;;6.97;100.00;101534.38;5113203;28;20319;-83
2023/04/29 07:03:42;;;;;;;5.75;2.00;;;;;;;6.86;100.00;101510.19;5108119;28;20094;-83
2023/04/29 07:06:09;;;;;;;7.82;2.30;;;;;;;6.84;100.00;101502.38;5106970;28;20503;-84
2023/04/29 07:08:36;;;;;;;6.15;1.75;;;;;;;7.13;100.00;101522.91;5107830;28;20051;-85
2023/04/29 07:11:03;;;;;;;6.85;2.00;;;;;;;7.11;100.00;101542.91;5108739;27;20048;-84
2023/04/29 07:13:30;;;;;;;6.22;2.00;;;;;;;6.99;100.00;101554.31;5108194;28;20546;-85
2023/04/29 07:15:57;;;;;;;5.07;1.75;;;;;;;6.78;100.00;101490.31;5093464;28;20052;-85
2023/04/29 07:18:24;;;;;;;4.78;1.98;;;;;;;6.98;100.00;101507.47;5108098;28;20096;-83
2023/04/29 07:20:51;;;;;;;8.05;2.30;;;;;;;7.18;100.00;101522.88;5092217;28;20070;-85
2023/04/29 07:23:18;;;;;;;6.18;1.70;;;;;;;7.19;100.00;101491.59;5107179;28;20050;-86
2023/04/29 07:25:45;;;;;;;6.18;1.90;;;;;;;7.17;100.00;101506.38;5109768;28;20044;-85
2023/04/29 07:28:12;;;;;;;7.47;2.20;;;;;;;7.19;100.00;101509.81;5112144;28;20036;-82
2023/04/29 07:30:38;;;;;;;7.43;2.22;;;;;;;7.31;100.00;101537.50;5107555;28;20059;-83
2023/04/29 07:33:05;;;;;;;5.97;2.10;;;;;;;7.44;100.00;101551.22;5108112;28;20056;-82
2023/04/29 07:35:32;;;;;;;5.93;1.80;;;;;;;7.37;100.00;101533.94;5112952;28;20054;-83
2023/04/29 07:37:59;;;;;;;5.50;1.80;;;;;;;7.53;100.00;101566.75;5109761;28;20044;-83
2023/04/29 07:40:25;;;;;;;6.00;1.75;;;;;;;7.54;100.00;101539.81;5103568;28;20063;-83
2023/04/29 07:42:52;;;;;;;8.10;2.42;;;;;;;7.44;100.00;101519.09;5103237;28;20044;-82
2023/04/29 07:45:19;;;;;;;8.25;2.50;;;;;;;7.71;100.00;101572.63;5109298;28;20418;-82
2023/04/29 07:47:46;;;;;;;7.38;1.90;;;;;;;7.53;100.00;101540.69;5107515;28;20048;-83
2023/04/29 07:50:13;;;;;;;6.32;2.22;;;;;;;7.84;100.00;101557.69;5101141;28;20474;-83
2023/04/29 07:52:39;;;;;;;5.78;1.73;;;;;;;7.83;100.00;101551.63;5106590;28;20044;-83
2023/04/29 07:55:07;;;;;;;7.32;1.90;;;;;;;7.59;100.00;101550.19;5101800;28;20057;-83
2023/04/29 07:57:33;;;;;;;6.05;1.90;;;;;;;7.49;100.00;101504.25;5113279;28;20104;-82
2023/04/29 08:00:00;;;;;;;7.45;2.17;;;;;;;7.40;100.00;101489.59;5107076;28;20043;-82
2023/04/29 08:02:27;;;;;;;7.50;1.90;;;;;;;7.72;100.00;101522.19;5100142;28;20054;-83
2023/04/29 08:04:54;;;;;;;8.07;2.10;;;;;;;8.21;100.00;101584.13;5104652;28;20048;-83
2023/04/29 08:07:22;;;;;;;9.43;3.05;;;;;;;7.92;100.00;101556.72;5105933;28;20063;-82
2023/04/29 08:09:49;;;;;;;10.00;2.13;;;;;;;7.70;100.00;101509.22;5110916;28;20055;-83
2023/04/29 08:12:15;;;;;;;6.30;1.80;;;;;;;7.99;100.00;101567.94;5108316;28;20056;-83
2023/04/29 08:14:42;;;;;;;5.40;1.85;;;;;;;7.93;100.00;101529.75;5111959;28;20465;-82
2023/04/29 08:17:09;;;;;;;5.75;1.95;;;;;;;7.81;100.00;101509.06;5108013;28;20520;-83
2023/04/29 08:19:36;;;;;;;7.25;1.98;;;;;;;7.88;100.00;101521.13;5096362;28;20044;-83
2023/04/29 08:22:03;;;;;;;8.88;2.15;;;;;;;7.96;100.00;101526.22;5107675;28;20052;-83
2023/04/29 08:24:32;;;;;;;6.40;1.58;;;;;;;8.10;100.00;101541.69;5102704;28;20051;-83
2023/04/29 08:26:59;;;;;;;6.80;1.88;;;;;;;8.44;100.00;101543.81;5094064;28;20134;-82
2023/04/29 08:29:26;;;;;;;4.80;1.75;;;;;;;8.51;100.00;101553.28;5101086;28;20134;-82
2023/04/29 08:31:53;;;;;;;4.93;1.92;;;;;;;8.55;100.00;101554.94;5110179;28;20509;-82
2023/04/29 08:34:20;;;;;;;4.07;1.40;;;;;;;8.69;100.00;101562.56;5100317;28;20155;-82
2023/04/29 08:36:46;;;;;;;5.45;1.83;;;;;;;8.24;100.00;101537.13;5091704;28;20405;-82
2023/04/29 08:39:13;;;;;;;8.30;2.13;;;;;;;8.82;100.00;101599.75;5105442;28;20097;-82
2023/04/29 08:41:42;;;;;;;11.35;2.20;;;;;;;8.59;100.00;101576.63;5097062;28;20422;-82
2023/04/29 08:44:09;;;;;;;5.72;1.83;;;;;;;9.00;100.00;101575.09;5101669;28;20512;-83
2023/04/29 08:46:38;;;;;;;5.25;1.75;;;;;;;8.83;100.00;101559.72;5109602;28;20423;-82
2023/04/29 08:49:06;;;;;;;7.45;1.65;;;;;;;8.86;100.00;101564.91;5108961;28;20066;-83
2023/04/29 08:51:33;;;;;;;6.22;2.10;;;;;;;8.80;100.00;101555.41;5101315;28;20044;-83
2023/04/29 08:54:00;;;;;;;5.35;1.50;;;;;;;8.77;100.00;101557.22;5101701;28;21366;-84
2023/04/29 08:56:29;;;;;;;6.03;1.67;;;;;;;9.07;100.00;101574.09;5107635;28;20052;-81
2023/04/29 08:58:57;;;;;;;7.53;1.90;;;;;;;9.17;100.00;101574.78;5103947;28;20040;-82
2023/04/29 09:01:28;;;;;;;9.65;2.53;;;;;;;9.36;100.00;101557.00;5112302;27;20056;-83
2023/04/29 09:04:13;;;;;;;9.43;2.83;;;;;;;8.93;100.00;101603.06;5112948;28;20050;-83
2023/04/29 09:06:40;;;;;;;6.50;1.90;;;;;;;8.92;100.00;101563.03;5099555;28;20635;-83
2023/04/29 09:09:08;;;;;;;7.50;1.75;;;;;;;8.96;100.00;101539.47;5099997;28;20048;-83
2023/04/29 09:11:36;;;;;;;7.90;1.90;;;;;;;9.37;100.00;101611.03;5098507;28;20060;-83
2023/04/29 09:14:07;;;;;;;5.30;1.80;;;;;;;9.14;100.00;101560.03;5111946;28;20481;-83
2023/04/29 09:16:36;;;;;;;7.32;1.92;;;;;;;9.34;100.00;101618.91;5116261;28;20044;-83
2023/04/29 09:19:03;;;;;;;5.68;1.80;;;;;;;8.88;100.00;101570.94;5102845;28;20052;-82
2023/04/29 09:21:31;;;;;;;8.88;2.42;;;;;;;8.96;100.00;101596.91;5113728;28;20055;-82
2023/04/29 09:24:02;;;;;;;6.85;1.77;;;;;;;9.28;100.00;101605.06;5110706;28;20055;-82
2023/04/29 09:26:42;;;;;;;7.10;2.22;;;;;;;9.79;100.00;101635.47;5110067;28;20105;-82
2023/04/29 09:29:17;;;;;;;3.70;1.38;;;;;;;9.38;100.00;101613.59;5109576;28;20047;-83
2023/04/29 09:31:45;;;;;;;6.68;1.90;;;;;;;9.55;100.00;101613.28;5105082;28;20444;-83
2023/04/29 09:34:13;;;;;;;4.72;1.88;;;;;;;9.38;100.00;101592.66;5108527;28;20047;-82
2023/04/29 09:36:45;;;;;;;7.38;1.83;;;;;;;9.88;100.00;101640.53;5115029;28;20047;-82
2023/04/29 09:39:19;;;;;;;4.13;1.42;;;;;;;9.55;100.00;101581.06;5103351;28;20043;-82
2023/04/29 09:41:49;;;;;;;5.20;1.65;;;;;;;9.50;100.00;101641.25;5103001;28;20052;-82
2023/04/29 09:44:16;;;;;;;6.32;1.70;;;;;;;9.49;100.00;101616.00;5094998;28;20051;-83
2023/04/29 09:46:43;;;;;;;5.15;1.63;;;;;;;9.75;100.00;101646.03;5094518;28;20044;-83
2023/04/29 09:49:39;;;;;;;5.53;1.77;;;;;;;9.92;100.00;101637.84;5097444;28;20047;-83
2023/04/29 09:52:11;;;;;;;7.13;1.73;;;;;;;9.98;100.00;101635.94;5106784;27;20047;-82
2023/04/29 09:54:39;;;;;;;6.97;1.90;;;;;;;9.87;100.00;101611.78;5113032;27;20039;-82
2023/04/29 09:57:08;;;;;;;5.47;1.85;;;;;;;10.23;100.00;101633.69;5107360;28;20066;-83
2023/04/29 09:59:37;;;;;;;8.38;2.47;;;;;;;10.03;100.00;101641.94;5098003;28;20055;-83
2023/04/29 10:02:14;;;;;;;7.07;2.13;;;;;;;9.59;100.00;101609.69;5100782;28;20036;-84
2023/04/29 10:04:46;;;;;;;6.63;2.00;;;;;;;9.47;100.00;101597.75;5109875;28;20096;-83
2023/04/29 10:07:17;;;;;;;9.02;2.00;;;;;;;9.56;100.00;101582.75;5112787;28;20048;-83
2023/04/29 10:09:46;;;;;;;7.78;2.50;;;;;;;9.30;100.00;101584.13;5114651;28;20419;-83
2023/04/29 10:12:17;;;;;;;7.90;2.22;;;;;;;9.52;100.00;101649.94;5111726;28;20397;-83
2023/04/29 10:14:53;;;;;;;6.18;2.05;;;;;;;9.38;100.00;101620.56;5103709;28;20048;-82
2023/04/29 10:17:31;;;;;;;8.60;2.30;;;;;;;9.24;100.00;101600.78;5118089;28;20484;-82
2023/04/29 10:20:05;;;;;;;5.65;1.88;;;;;;;9.07;100.00;101581.94;5111888;28;20040;-82
2023/04/29 10:22:39;;;;;;;5.97;1.70;;;;;;;9.22;100.00;101604.31;5107010;28;20067;-83
2023/04/29 10:25:08;;;;;;;9.77;2.20;;;;;;;9.41;100.00;101637.06;5114365;28;20525;-83
2023/04/29 10:27:36;;;;;;;9.32;1.92;;;;;;;9.50;100.00;101636.03;5107138;28;20050;-82
2023/04/29 10:30:06;;;;;;;9.00;2.47;;;;;;;9.44;100.00;101628.31;5108051;28;20434;-82
2023/04/29 10:32:33;;;;;;;6.28;2.22;;;;;;;9.44;100.00;101634.41;5107776;28;20048;-82
2023/04/29 10:35:24;;;;;;;5.50;1.73;;;;;;;9.71;100.00;101650.44;5117859;28;20082;-82
2023/04/29 10:37:52;;;;;;;9.25;2.00;;;;;;;9.43;100.00;101632.66;5113884;28;20413;-83
2023/04/29 10:40:27;;;;;;;6.38;2.20;;;;;;;9.84;100.00;101651.06;5116062;28;20051;-84
2023/04/29 10:42:54;;;;;;;7.75;2.25;;;;;;;9.56;100.00;101614.13;5121079;28;20048;-84
2023/04/29 10:45:26;;;;;;;4.75;1.73;;;;;;;9.77;100.00;101618.06;5116522;28;20382;-83
2023/04/29 10:48:04;;;;;;;4.32;1.67;;;;;;;10.11;100.00;101646.16;5110011;28;20408;-83
2023/04/29 10:50:32;;;;;;;8.38;1.67;;;;;;;9.95;100.00;101601.13;5107299;28;20123;-82
2023/04/29 10:53:03;;;;;;;5.57;1.63;;;;;;;9.96;100.00;101598.50;5108221;28;20409;-82
2023/04/29 10:55:31;;;;;;;6.47;1.63;;;;;;;9.99;100.00;101610.66;5106629;28;20039;-82
2023/04/29 10:57:58;;;;;;;5.57;1.48;;;;;;;9.93;100.00;101606.41;5112395;28;20059;-82
2023/04/29 11:00:29;;;;;;;8.35;2.28;;;;;;;9.94;100.00;101623.84;5097943;28;20043;-82
2023/04/29 11:02:57;;;;;;;5.55;1.67;;;;;;;9.83;100.00;101581.34;5108730;28;20051;-81
2023/04/29 11:05:35;;;;;;;6.55;2.00;;;;;;;10.07;100.00;101612.22;5113371;28;20069;-82
2023/04/29 11:08:11;;;;;;;4.72;1.60;;;;;;;10.16;100.00;101650.38;5107941;28;20126;-85
2023/04/29 11:10:42;;;;;;;6.97;2.00;;;;;;;10.23;100.00;101649.41;5106704;28;20048;-85
2023/04/29 11:13:29;;;;;;;6.47;2.00;;;;;;;10.22;100.00;101646.81;5109969;28;20469;-87
2023/04/29 11:16:10;;;;;;;6.75;2.30;;;;;;;9.94;100.00;101622.97;5096940;28;20055;-87
2023/04/29 11:19:03;;;;;;;5.35;2.03;;;;;;;10.26;100.00;101640.59;5110856;28;20043;-86
2023/04/29 11:21:31;;;;;;;7.75;2.10;;;;;;;9.82;100.00;101579.63;5107771;28;20397;-87
2023/04/29 11:24:00;;;;;;;5.53;1.80;;;;;;;9.81;100.00;101576.16;5095398;28;20052;-86
2023/04/29 11:26:26;;;;;;;5.50;1.90;;;;;;;9.56;100.00;101562.72;5107530;28;20043;-86
2023/04/29 11:28:56;;;;;;;6.18;2.08;;;;;;;9.67;100.00;101575.56;5113813;28;20412;-85